sensor_id;sensor_type;location;lat;lon;timestamp;pressure;altitude;pressure_sealevel;temperature;humidity
78986;BME280;68384;55.750;48.746;2023-03-29T00:00:22;99530.03;;;-1.11;79.50
78986;BME280;68384;55.750;48.746;2023-03-29T00:01:27;99534.22;;;-1.12;79.33
78986;BME280;68384;55.750;48.746;2023-03-29T00:02:37;99519.41;;;-1.17;79.29
78986;BME280;68384;55.750;48.746;2023-03-29T00:03:40;99529.13;;;-1.12;79.55
78986;BME280;68384;55.750;48.746;2023-03-29T00:04:45;99531.56;;;-1.13;79.41
78986;BME280;68384;55.750;48.746;2023-03-29T00:05:48;99531.56;;;-1.13;79.36
78986;BME280;68384;55.750;48.746;2023-03-29T00:06:52;99526.59;;;-1.12;79.13
78986;BME280;68384;55.750;48.746;2023-03-29T00:07:55;99537.75;;;-1.10;79.45
78986;BME280;68384;55.750;48.746;2023-03-29T00:09:04;99534.31;;;-1.10;79.44
78986;BME280;68384;55.750;48.746;2023-03-29T00:10:09;99534.22;;;-1.12;79.17
78986;BME280;68384;55.750;48.746;2023-03-29T00:11:13;99537.66;;;-1.11;79.10
78986;BME280;68384;55.750;48.746;2023-03-29T00:12:15;99537.75;;;-1.10;79.36
78986;BME280;68384;55.750;48.746;2023-03-29T00:13:19;99549.72;;;-1.09;79.29
78986;BME280;68384;55.750;48.746;2023-03-29T00:14:22;99552.25;;;-1.09;79.42
78986;BME280;68384;55.750;48.746;2023-03-29T00:15:27;99547.94;;;-1.10;79.33
78986;BME280;68384;55.750;48.746;2023-03-29T00:16:30;99544.50;;;-1.10;79.42
78986;BME280;68384;55.750;48.746;2023-03-29T00:17:33;99553.13;;;-1.08;79.06
78986;BME280;68384;55.750;48.746;2023-03-29T00:18:36;99549.72;;;-1.09;79.08
78986;BME280;68384;55.750;48.746;2023-03-29T00:19:44;99551.38;;;-1.09;79.00
78986;BME280;68384;55.750;48.746;2023-03-29T00:20:53;99549.59;;;-1.10;78.97
78986;BME280;68384;55.750;48.746;2023-03-29T00:21:57;99549.72;;;-1.09;79.29
78986;BME280;68384;55.750;48.746;2023-03-29T00:23:00;99557.22;;;-1.10;78.77
78986;BME280;68384;55.750;48.746;2023-03-29T00:24:05;99558.19;;;-1.08;79.28
78986;BME280;68384;55.750;48.746;2023-03-29T00:25:08;99550.38;;;-1.11;79.15
78986;BME280;68384;55.750;48.746;2023-03-29T00:26:12;99548.03;;;-1.08;79.12
78986;BME280;68384;55.750;48.746;2023-03-29T00:27:17;99556.53;;;-1.08;79.16
78986;BME280;68384;55.750;48.746;2023-03-29T00:28:20;99559.88;;;-1.09;78.96
78986;BME280;68384;55.750;48.746;2023-03-29T00:29:23;99552.34;;;-1.07;79.05
78986;BME280;68384;55.750;48.746;2023-03-29T00:30:27;99550.38;;;-1.11;79.15
78986;BME280;68384;55.750;48.746;2023-03-29T00:31:30;99556.44;;;-1.09;79.12
78986;BME280;68384;55.750;48.746;2023-03-29T00:32:33;99554.66;;;-1.10;79.07
78986;BME280;68384;55.750;48.746;2023-03-29T00:33:36;99557.88;;;-1.13;79.19
78986;BME280;68384;55.750;48.746;2023-03-29T00:34:40;99551.91;;;-1.13;79.31
78986;BME280;68384;55.750;48.746;2023-03-29T00:35:44;99552.56;;;-1.16;79.49
78986;BME280;68384;55.750;48.746;2023-03-29T00:36:49;99549.34;;;-1.13;79.37
78986;BME280;68384;55.750;48.746;2023-03-29T00:37:53;99551.00;;;-1.14;79.36
78986;BME280;68384;55.750;48.746;2023-03-29T00:38:58;99556.00;;;-1.15;79.19
78986;BME280;68384;55.750;48.746;2023-03-29T00:40:03;99544.84;;;-1.17;79.41
78986;BME280;68384;55.750;48.746;2023-03-29T00:41:10;99545.72;;;-1.17;79.44
78986;BME280;68384;55.750;48.746;2023-03-29T00:42:15;99550.81;;;-1.17;79.49
78986;BME280;68384;55.750;48.746;2023-03-29T00:43:20;99550.81;;;-1.17;79.49
78986;BME280;68384;55.750;48.746;2023-03-29T00:44:52;99557.41;;;-1.19;79.40
78986;BME280;68384;55.750;48.746;2023-03-29T00:45:57;99559.97;;;-1.19;79.63
78986;BME280;68384;55.750;48.746;2023-03-29T00:47:01;99554.78;;;-1.20;79.43
78986;BME280;68384;55.750;48.746;2023-03-29T00:48:05;99555.53;;;-1.21;79.60
78986;BME280;68384;55.750;48.746;2023-03-29T00:49:10;99550.22;;;-1.24;79.45
78986;BME280;68384;55.750;48.746;2023-03-29T00:50:16;99543.28;;;-1.27;79.50
78986;BME280;68384;55.750;48.746;2023-03-29T00:51:28;99542.84;;;-1.21;79.62
78986;BME280;68384;55.750;48.746;2023-03-29T00:52:34;99536.75;;;-1.23;79.64
78986;BME280;68384;55.750;48.746;2023-03-29T00:53:41;99534.22;;;-1.23;79.72
78986;BME280;68384;55.750;48.746;2023-03-29T00:54:45;99534.97;;;-1.24;79.73
78986;BME280;68384;55.750;48.746;2023-03-29T00:55:52;99534.88;;;-1.26;79.76
78986;BME280;68384;55.750;48.746;2023-03-29T00:56:57;99533.31;;;-1.24;79.66
78986;BME280;68384;55.750;48.746;2023-03-29T00:58:07;99534.66;;;-1.29;79.64
78986;BME280;68384;55.750;48.746;2023-03-29T00:59:12;99533.22;;;-1.25;79.84
78986;BME280;68384;55.750;48.746;2023-03-29T01:00:21;99517.75;;;-1.28;79.78
78986;BME280;68384;55.750;48.746;2023-03-29T01:01:30;99521.19;;;-1.28;79.96
78986;BME280;68384;55.750;48.746;2023-03-29T01:02:35;99519.41;;;-1.29;79.84
78986;BME280;68384;55.750;48.746;2023-03-29T01:03:42;99524.47;;;-1.29;79.98
78986;BME280;68384;55.750;48.746;2023-03-29T01:04:50;99520.06;;;-1.31;79.91
78986;BME280;68384;55.750;48.746;2023-03-29T01:05:58;99525.16;;;-1.31;80.07
78986;BME280;68384;55.750;48.746;2023-03-29T01:07:05;99519.84;;;-1.34;79.92
78986;BME280;68384;55.750;48.746;2023-03-29T01:08:10;99524.16;;;-1.33;80.02
78986;BME280;68384;55.750;48.746;2023-03-29T01:09:21;99529.13;;;-1.35;79.95
78986;BME280;68384;55.750;48.746;2023-03-29T01:10:30;99524.03;;;-1.35;80.43
78986;BME280;68384;55.750;48.746;2023-03-29T01:11:42;99521.38;;;-1.36;80.13
78986;BME280;68384;55.750;48.746;2023-03-29T01:12:49;99526.47;;;-1.36;80.33
78986;BME280;68384;55.750;48.746;2023-03-29T01:13:54;99526.47;;;-1.36;80.49
78986;BME280;68384;55.750;48.746;2023-03-29T01:15:03;99531.56;;;-1.36;80.41
78986;BME280;68384;55.750;48.746;2023-03-29T01:16:09;99529.78;;;-1.37;80.16
78986;BME280;68384;55.750;48.746;2023-03-29T01:17:13;99532.22;;;-1.39;80.11
78986;BME280;68384;55.750;48.746;2023-03-29T01:18:17;99531.34;;;-1.39;80.36
78986;BME280;68384;55.750;48.746;2023-03-29T01:19:26;99535.53;;;-1.40;80.63
78986;BME280;68384;55.750;48.746;2023-03-29T01:20:42;99523.69;;;-1.39;80.53
78986;BME280;68384;55.750;48.746;2023-03-29T01:21:53;99525.13;;;-1.43;80.61
78986;BME280;68384;55.750;48.746;2023-03-29T01:23:06;99527.81;;;-1.41;80.60
78986;BME280;68384;55.750;48.746;2023-03-29T01:24:36;99532.88;;;-1.41;80.69
78986;BME280;68384;55.750;48.746;2023-03-29T01:25:50;99531.00;;;-1.44;80.52
78986;BME280;68384;55.750;48.746;2023-03-29T01:27:04;99531.84;;;-1.43;80.65
78986;BME280;68384;55.750;48.746;2023-03-29T01:28:14;99538.63;;;-1.44;80.71
78986;BME280;68384;55.750;48.746;2023-03-29T01:29:21;99535.19;;;-1.44;80.83
78986;BME280;68384;55.750;48.746;2023-03-29T01:30:31;99541.03;;;-1.45;80.72
78986;BME280;68384;55.750;48.746;2023-03-29T01:31:37;99542.69;;;-1.46;80.79
78986;BME280;68384;55.750;48.746;2023-03-29T01:32:45;99542.81;;;-1.44;80.78
78986;BME280;68384;55.750;48.746;2023-03-29T01:33:57;99543.59;;;-1.45;81.03
78986;BME280;68384;55.750;48.746;2023-03-29T01:35:08;99546.13;;;-1.45;80.74
78986;BME280;68384;55.750;48.746;2023-03-29T01:36:18;99552.09;;;-1.45;81.01
78986;BME280;68384;55.750;48.746;2023-03-29T01:37:28;99550.31;;;-1.46;80.86
78986;BME280;68384;55.750;48.746;2023-03-29T01:38:39;99546.78;;;-1.48;80.88
78986;BME280;68384;55.750;48.746;2023-03-29T01:39:45;99547.78;;;-1.46;80.78
78986;BME280;68384;55.750;48.746;2023-03-29T01:40:48;99548.56;;;-1.47;80.95
78986;BME280;68384;55.750;48.746;2023-03-29T01:41:58;99556.94;;;-1.48;81.12
78986;BME280;68384;55.750;48.746;2023-03-29T01:43:10;99553.66;;;-1.47;81.09
78986;BME280;68384;55.750;48.746;2023-03-29T01:44:18;99552.53;;;-1.50;80.98
78986;BME280;68384;55.750;48.746;2023-03-29T01:45:23;99550.09;;;-1.49;81.18
78986;BME280;68384;55.750;48.746;2023-03-29T01:46:33;99544.91;;;-1.50;81.12
78986;BME280;68384;55.750;48.746;2023-03-29T01:47:43;99548.44;;;-1.48;81.12
78986;BME280;68384;55.750;48.746;2023-03-29T01:48:50;99533.09;;;-1.50;81.02
78986;BME280;68384;55.750;48.746;2023-03-29T01:50:01;99544.16;;;-1.49;81.19
78986;BME280;68384;55.750;48.746;2023-03-29T01:51:10;99560.25;;;-1.49;81.08
78986;BME280;68384;55.750;48.746;2023-03-29T01:52:19;99542.38;;;-1.50;81.19
78986;BME280;68384;55.750;48.746;2023-03-29T01:53:28;99546.69;;;-1.49;81.34
78986;BME280;68384;55.750;48.746;2023-03-29T01:54:34;99537.19;;;-1.52;81.29
78986;BME280;68384;55.750;48.746;2023-03-29T01:55:42;99543.25;;;-1.50;81.33
78986;BME280;68384;55.750;48.746;2023-03-29T01:56:47;99548.34;;;-1.50;81.35
78986;BME280;68384;55.750;48.746;2023-03-29T01:57:54;99550.31;;;-1.46;81.27
78986;BME280;68384;55.750;48.746;2023-03-29T01:59:01;99545.38;;;-1.44;81.25
78986;BME280;68384;55.750;48.746;2023-03-29T02:00:11;99539.25;;;-1.46;81.28
78986;BME280;68384;55.750;48.746;2023-03-29T02:01:18;99554.75;;;-1.43;81.09
78986;BME280;68384;55.750;48.746;2023-03-29T02:02:23;99548.13;;;-1.41;80.93
78986;BME280;68384;55.750;48.746;2023-03-29T02:03:29;99543.91;;;-1.41;81.04
78986;BME280;68384;55.750;48.746;2023-03-29T02:04:38;99554.97;;;-1.40;80.57
78986;BME280;68384;55.750;48.746;2023-03-29T02:05:43;99545.91;;;-1.37;81.43
78986;BME280;68384;55.750;48.746;2023-03-29T02:06:49;99543.28;;;-1.38;81.21
78986;BME280;68384;55.750;48.746;2023-03-29T02:07:55;99548.38;;;-1.38;80.88
78986;BME280;68384;55.750;48.746;2023-03-29T02:09:01;99544.38;;;-1.35;81.21
78986;BME280;68384;55.750;48.746;2023-03-29T02:10:08;99539.19;;;-1.36;80.95
78986;BME280;68384;55.750;48.746;2023-03-29T02:11:13;99548.69;;;-1.34;80.81
78986;BME280;68384;55.750;48.746;2023-03-29T02:12:17;99550.56;;;-1.31;80.83
78986;BME280;68384;55.750;48.746;2023-03-29T02:13:21;99554.75;;;-1.32;80.93
78986;BME280;68384;55.750;48.746;2023-03-29T02:14:24;99561.88;;;-1.28;80.95
78986;BME280;68384;55.750;48.746;2023-03-29T02:15:49;99547.69;;;-1.24;80.87
78986;BME280;68384;55.750;48.746;2023-03-29T02:16:52;99552.78;;;-1.24;80.78
78986;BME280;68384;55.750;48.746;2023-03-29T02:17:55;99556.34;;;-1.22;80.74
78986;BME280;68384;55.750;48.746;2023-03-29T02:18:58;99560.84;;;-1.18;80.78
78986;BME280;68384;55.750;48.746;2023-03-29T02:20:04;99553.22;;;-1.18;80.62
78986;BME280;68384;55.750;48.746;2023-03-29T02:21:20;99549.25;;;-1.15;80.43
78986;BME280;68384;55.750;48.746;2023-03-29T02:22:28;99555.47;;;-1.11;80.37
78986;BME280;68384;55.750;48.746;2023-03-29T02:23:34;99552.13;;;-1.10;80.16
78986;BME280;68384;55.750;48.746;2023-03-29T02:24:41;99553.25;;;-1.07;80.10
78986;BME280;68384;55.750;48.746;2023-03-29T02:25:49;99555.03;;;-1.06;80.16
78986;BME280;68384;55.750;48.746;2023-03-29T02:26:54;99559.66;;;-1.00;80.08
78986;BME280;68384;55.750;48.746;2023-03-29T02:27:58;99569.19;;;-0.97;79.98
78986;BME280;68384;55.750;48.746;2023-03-29T02:29:03;99558.13;;;-0.98;79.87
78986;BME280;68384;55.750;48.746;2023-03-29T02:30:08;99557.53;;;-0.94;79.81
78986;BME280;68384;55.750;48.746;2023-03-29T02:31:18;99544.81;;;-0.94;79.67
78986;BME280;68384;55.750;48.746;2023-03-29T02:32:29;99551.91;;;-0.90;79.63
78986;BME280;68384;55.750;48.746;2023-03-29T02:33:40;99556.22;;;-0.89;79.65
78986;BME280;68384;55.750;48.746;2023-03-29T02:34:47;99561.53;;;-0.86;79.35
78986;BME280;68384;55.750;48.746;2023-03-29T02:35:56;99561.66;;;-0.84;79.59
78986;BME280;68384;55.750;48.746;2023-03-29T02:37:03;99558.31;;;-0.83;79.43
78986;BME280;68384;55.750;48.746;2023-03-29T02:38:09;99554.13;;;-0.83;79.28
78986;BME280;68384;55.750;48.746;2023-03-29T02:39:14;99555.09;;;-0.81;79.21
78986;BME280;68384;55.750;48.746;2023-03-29T02:40:20;99564.41;;;-0.81;79.30
78986;BME280;68384;55.750;48.746;2023-03-29T02:41:25;99568.16;;;-0.76;79.37
78986;BME280;68384;55.750;48.746;2023-03-29T02:42:30;99567.50;;;-0.74;79.26
78986;BME280;68384;55.750;48.746;2023-03-29T02:43:33;99571.94;;;-0.71;78.88
78986;BME280;68384;55.750;48.746;2023-03-29T02:44:39;99584.09;;;-0.67;78.84
78986;BME280;68384;55.750;48.746;2023-03-29T02:45:44;99579.13;;;-0.66;78.88
78986;BME280;68384;55.750;48.746;2023-03-29T02:46:52;99586.06;;;-0.63;78.75
78986;BME280;68384;55.750;48.746;2023-03-29T02:47:59;99582.78;;;-0.62;78.85
78986;BME280;68384;55.750;48.746;2023-03-29T02:49:05;99580.44;;;-0.59;78.99
78986;BME280;68384;55.750;48.746;2023-03-29T02:50:08;99587.28;;;-0.58;78.52
78986;BME280;68384;55.750;48.746;2023-03-29T02:51:14;99579.88;;;-0.55;78.56
78986;BME280;68384;55.750;48.746;2023-03-29T02:52:24;99574.91;;;-0.54;78.40
78986;BME280;68384;55.750;48.746;2023-03-29T02:53:32;99577.44;;;-0.54;78.31
78986;BME280;68384;55.750;48.746;2023-03-29T02:54:39;99577.53;;;-0.52;78.36
78986;BME280;68384;55.750;48.746;2023-03-29T02:55:44;99578.31;;;-0.53;78.18
78986;BME280;68384;55.750;48.746;2023-03-29T02:56:48;99577.63;;;-0.51;78.32
78986;BME280;68384;55.750;48.746;2023-03-29T02:57:52;99582.72;;;-0.51;78.21
78986;BME280;68384;55.750;48.746;2023-03-29T02:58:55;99580.19;;;-0.51;78.33
78986;BME280;68384;55.750;48.746;2023-03-29T02:59:59;99579.63;;;-0.47;78.16
78986;BME280;68384;55.750;48.746;2023-03-29T03:01:03;99575.53;;;-0.45;77.92
78986;BME280;68384;55.750;48.746;2023-03-29T03:02:09;99583.28;;;-0.43;78.26
78986;BME280;68384;55.750;48.746;2023-03-29T03:03:13;99582.41;;;-0.44;78.05
78986;BME280;68384;55.750;48.746;2023-03-29T03:04:18;99581.75;;;-0.41;77.86
78986;BME280;68384;55.750;48.746;2023-03-29T03:05:21;99584.38;;;-0.40;77.64
78986;BME280;68384;55.750;48.746;2023-03-29T03:06:25;99592.91;;;-0.39;77.63
78986;BME280;68384;55.750;48.746;2023-03-29T03:07:28;99584.59;;;-0.36;77.75
78986;BME280;68384;55.750;48.746;2023-03-29T03:08:32;99594.09;;;-0.34;78.01
78986;BME280;68384;55.750;48.746;2023-03-29T03:09:35;99600.31;;;-0.30;77.51
78986;BME280;68384;55.750;48.746;2023-03-29T03:10:38;99592.56;;;-0.32;77.26
78986;BME280;68384;55.750;48.746;2023-03-29T03:11:42;99589.00;;;-0.34;77.23
78986;BME280;68384;55.750;48.746;2023-03-29T03:12:45;99595.22;;;-0.30;77.63
78986;BME280;68384;55.750;48.746;2023-03-29T03:13:48;99590.22;;;-0.29;77.46
78986;BME280;68384;55.750;48.746;2023-03-29T03:14:51;99593.78;;;-0.27;77.53
78986;BME280;68384;55.750;48.746;2023-03-29T03:15:55;99598.97;;;-0.25;77.47
78986;BME280;68384;55.750;48.746;2023-03-29T03:16:58;99591.31;;;-0.25;77.38
78986;BME280;68384;55.750;48.746;2023-03-29T03:18:06;99600.16;;;-0.20;77.09
78986;BME280;68384;55.750;48.746;2023-03-29T03:19:11;99602.72;;;-0.20;77.49
78986;BME280;68384;55.750;48.746;2023-03-29T03:20:14;99589.22;;;-0.19;77.04
78986;BME280;68384;55.750;48.746;2023-03-29T03:21:18;99599.50;;;-0.18;76.99
78986;BME280;68384;55.750;48.746;2023-03-29T03:22:21;99594.31;;;-0.19;77.23
78986;BME280;68384;55.750;48.746;2023-03-29T03:23:26;99595.28;;;-0.17;77.04
78986;BME280;68384;55.750;48.746;2023-03-29T03:24:30;99577.25;;;-0.20;76.97
78986;BME280;68384;55.750;48.746;2023-03-29T03:25:34;99580.91;;;-0.17;76.87
78986;BME280;68384;55.750;48.746;2023-03-29T03:26:38;99590.31;;;-0.16;76.81
78986;BME280;68384;55.750;48.746;2023-03-29T03:27:40;99592.66;;;-0.19;76.88
78986;BME280;68384;55.750;48.746;2023-03-29T03:28:44;99585.09;;;-0.17;77.05
78986;BME280;68384;55.750;48.746;2023-03-29T03:29:46;99582.47;;;-0.19;76.86
78986;BME280;68384;55.750;48.746;2023-03-29T03:30:50;99583.69;;;-0.25;76.56
78986;BME280;68384;55.750;48.746;2023-03-29T03:31:52;99576.38;;;-0.21;77.00
78986;BME280;68384;55.750;48.746;2023-03-29T03:32:56;99580.91;;;-0.17;77.16
78986;BME280;68384;55.750;48.746;2023-03-29T03:34:00;99584.22;;;-0.18;76.91
78986;BME280;68384;55.750;48.746;2023-03-29T03:35:04;99588.75;;;-0.14;76.95
78986;BME280;68384;55.750;48.746;2023-03-29T03:36:09;99591.75;;;-0.08;76.82
78986;BME280;68384;55.750;48.746;2023-03-29T03:37:13;99583.19;;;-0.08;76.68
78986;BME280;68384;55.750;48.746;2023-03-29T03:38:16;99575.44;;;-0.10;76.52
78986;BME280;68384;55.750;48.746;2023-03-29T03:39:20;99581.63;;;-0.06;76.45
78986;BME280;68384;55.750;48.746;2023-03-29T03:40:22;99579.31;;;-0.03;76.42
78986;BME280;68384;55.750;48.746;2023-03-29T03:41:29;99582.84;;;-0.01;76.34
78986;BME280;68384;55.750;48.746;2023-03-29T03:42:31;99587.16;;;-0.00;76.22
78986;BME280;68384;55.750;48.746;2023-03-29T03:43:35;99574.50;;;0.01;76.25
78986;BME280;68384;55.750;48.746;2023-03-29T03:44:37;99571.09;;;0.01;76.21
78986;BME280;68384;55.750;48.746;2023-03-29T03:45:41;99578.94;;;0.04;76.10
78986;BME280;68384;55.750;48.746;2023-03-29T03:46:45;99579.81;;;0.04;76.27
78986;BME280;68384;55.750;48.746;2023-03-29T03:47:49;99580.50;;;0.02;75.92
78986;BME280;68384;55.750;48.746;2023-03-29T03:48:53;99584.03;;;0.04;76.11
78986;BME280;68384;55.750;48.746;2023-03-29T03:49:57;99584.69;;;0.01;76.04
78986;BME280;68384;55.750;48.746;2023-03-29T03:51:00;99586.03;;;0.08;76.31
78986;BME280;68384;55.750;48.746;2023-03-29T03:52:05;99588.66;;;0.09;76.16
78986;BME280;68384;55.750;48.746;2023-03-29T03:53:08;99579.28;;;0.08;76.23
78986;BME280;68384;55.750;48.746;2023-03-29T03:54:11;99584.47;;;0.10;76.08
78986;BME280;68384;55.750;48.746;2023-03-29T03:55:15;99575.75;;;0.06;75.71
78986;BME280;68384;55.750;48.746;2023-03-29T03:56:17;99574.72;;;0.04;75.72
78986;BME280;68384;55.750;48.746;2023-03-29T03:57:21;99573.84;;;0.04;75.77
78986;BME280;68384;55.750;48.746;2023-03-29T03:58:24;99579.59;;;0.01;75.85
78986;BME280;68384;55.750;48.746;2023-03-29T03:59:28;99570.91;;;-0.02;76.17
78986;BME280;68384;55.750;48.746;2023-03-29T04:00:30;99579.53;;;-0.00;76.04
78986;BME280;68384;55.750;48.746;2023-03-29T04:01:34;99586.50;;;0.02;76.24
78986;BME280;68384;55.750;48.746;2023-03-29T04:02:36;99591.69;;;0.04;76.22
78986;BME280;68384;55.750;48.746;2023-03-29T04:03:40;99594.56;;;0.08;76.50
78986;BME280;68384;55.750;48.746;2023-03-29T04:04:42;99594.44;;;0.07;76.56
78986;BME280;68384;55.750;48.746;2023-03-29T04:05:47;99586.78;;;0.07;76.20
78986;BME280;68384;55.750;48.746;2023-03-29T04:06:50;99581.81;;;0.08;75.94
78986;BME280;68384;55.750;48.746;2023-03-29T04:07:53;99592.91;;;0.09;76.08
78986;BME280;68384;55.750;48.746;2023-03-29T04:08:57;99592.56;;;0.04;75.73
78986;BME280;68384;55.750;48.746;2023-03-29T04:10:00;99592.69;;;0.06;75.82
78986;BME280;68384;55.750;48.746;2023-03-29T04:11:03;99579.53;;;-0.00;75.79
78986;BME280;68384;55.750;48.746;2023-03-29T04:12:09;99577.13;;;-0.10;75.93
78986;BME280;68384;55.750;48.746;2023-03-29T04:13:12;99594.28;;;-0.08;75.94
78986;BME280;68384;55.750;48.746;2023-03-29T04:14:15;99585.00;;;-0.07;75.85
78986;BME280;68384;55.750;48.746;2023-03-29T04:15:18;99599.38;;;-0.08;75.90
78986;BME280;68384;55.750;48.746;2023-03-29T04:16:22;99591.53;;;-0.11;76.09
78986;BME280;68384;55.750;48.746;2023-03-29T04:17:25;99594.75;;;-0.13;76.00
78986;BME280;68384;55.750;48.746;2023-03-29T04:18:29;99595.81;;;-0.10;76.11
78986;BME280;68384;55.750;48.746;2023-03-29T04:19:31;99607.78;;;-0.09;76.09
78986;BME280;68384;55.750;48.746;2023-03-29T04:20:35;99613.09;;;-0.06;76.08
78986;BME280;68384;55.750;48.746;2023-03-29T04:21:39;99602.16;;;-0.05;75.99
78986;BME280;68384;55.750;48.746;2023-03-29T04:22:44;99607.47;;;-0.02;75.83
78986;BME280;68384;55.750;48.746;2023-03-29T04:23:46;99606.56;;;-0.02;75.74
78986;BME280;68384;55.750;48.746;2023-03-29T04:24:50;99606.56;;;-0.02;75.33
78986;BME280;68384;55.750;48.746;2023-03-29T04:25:53;99615.41;;;0.03;75.18
78986;BME280;68384;55.750;48.746;2023-03-29T04:26:57;99612.19;;;0.05;75.24
78986;BME280;68384;55.750;48.746;2023-03-29T04:28:00;99614.53;;;0.02;75.22
78986;BME280;68384;55.750;48.746;2023-03-29T04:29:03;99623.47;;;0.09;75.16
78986;BME280;68384;55.750;48.746;2023-03-29T04:30:06;99620.94;;;0.09;74.85
78986;BME280;68384;55.750;48.746;2023-03-29T04:31:11;99618.94;;;0.05;75.00
78986;BME280;68384;55.750;48.746;2023-03-29T04:32:14;99621.19;;;0.00;74.77
78986;BME280;68384;55.750;48.746;2023-03-29T04:33:17;99620.28;;;-0.00;74.82
78986;BME280;68384;55.750;48.746;2023-03-29T04:34:20;99620.38;;;0.01;74.72
78986;BME280;68384;55.750;48.746;2023-03-29T04:35:23;99619.53;;;0.01;74.98
78986;BME280;68384;55.750;48.746;2023-03-29T04:36:26;99618.84;;;0.03;74.76
78986;BME280;68384;55.750;48.746;2023-03-29T04:37:31;99616.97;;;0.01;74.99
78986;BME280;68384;55.750;48.746;2023-03-29T04:38:35;99623.59;;;-0.01;74.98
78986;BME280;68384;55.750;48.746;2023-03-29T04:39:39;99621.06;;;-0.01;75.05
78986;BME280;68384;55.750;48.746;2023-03-29T04:40:42;99614.97;;;-0.03;75.09
78986;BME280;68384;55.750;48.746;2023-03-29T04:41:46;99619.84;;;-0.06;74.88
78986;BME280;68384;55.750;48.746;2023-03-29T04:42:49;99621.72;;;-0.04;75.38
78986;BME280;68384;55.750;48.746;2023-03-29T04:43:53;99626.16;;;-0.01;75.20
78986;BME280;68384;55.750;48.746;2023-03-29T04:44:57;99617.75;;;-0.00;75.22
78986;BME280;68384;55.750;48.746;2023-03-29T04:46:01;99628.91;;;0.02;75.14
78986;BME280;68384;55.750;48.746;2023-03-29T04:47:04;99630.47;;;-0.00;75.01
78986;BME280;68384;55.750;48.746;2023-03-29T04:48:08;99629.59;;;-0.01;75.01
78986;BME280;68384;55.750;48.746;2023-03-29T04:49:11;99633.13;;;0.01;75.07
78986;BME280;68384;55.750;48.746;2023-03-29T04:50:15;99636.00;;;0.06;74.91
78986;BME280;68384;55.750;48.746;2023-03-29T04:51:18;99635.34;;;0.08;74.87
78986;BME280;68384;55.750;48.746;2023-03-29T04:52:23;99642.31;;;0.11;74.78
78986;BME280;68384;55.750;48.746;2023-03-29T04:53:27;99641.31;;;0.09;74.54
78986;BME280;68384;55.750;48.746;2023-03-29T04:54:31;99640.53;;;0.10;74.55
78986;BME280;68384;55.750;48.746;2023-03-29T04:55:34;99637.22;;;0.11;74.47
78986;BME280;68384;55.750;48.746;2023-03-29T04:56:37;99642.41;;;0.12;74.49
78986;BME280;68384;55.750;48.746;2023-03-29T04:57:41;99642.41;;;0.12;74.39
78986;BME280;68384;55.750;48.746;2023-03-29T04:58:45;99645.16;;;0.15;74.54
78986;BME280;68384;55.750;48.746;2023-03-29T04:59:49;99647.84;;;0.17;74.48
78986;BME280;68384;55.750;48.746;2023-03-29T05:00:54;99650.25;;;0.15;74.55
78986;BME280;68384;55.750;48.746;2023-03-29T05:01:59;99645.38;;;0.18;74.18
78986;BME280;68384;55.750;48.746;2023-03-29T05:03:02;99646.13;;;0.17;74.23
78986;BME280;68384;55.750;48.746;2023-03-29T05:04:07;99644.47;;;0.18;74.35
78986;BME280;68384;55.750;48.746;2023-03-29T05:05:13;99643.81;;;0.20;74.41
78986;BME280;68384;55.750;48.746;2023-03-29T05:06:17;99649.13;;;0.24;74.47
78986;BME280;68384;55.750;48.746;2023-03-29T05:07:19;99645.38;;;0.18;73.83
78986;BME280;68384;55.750;48.746;2023-03-29T05:08:24;99637.28;;;0.24;74.32
78986;BME280;68384;55.750;48.746;2023-03-29T05:09:28;99649.13;;;0.24;74.20
78986;BME280;68384;55.750;48.746;2023-03-29T05:10:35;99654.34;;;0.25;74.04
78986;BME280;68384;55.750;48.746;2023-03-29T05:11:40;99649.34;;;0.27;74.19
78986;BME280;68384;55.750;48.746;2023-03-29T05:12:45;99648.78;;;0.31;74.11
78986;BME280;68384;55.750;48.746;2023-03-29T05:13:48;99650.66;;;0.33;74.18
78986;BME280;68384;55.750;48.746;2023-03-29T05:14:52;99643.22;;;0.36;73.74
78986;BME280;68384;55.750;48.746;2023-03-29T05:15:54;99648.09;;;0.33;73.74
78986;BME280;68384;55.750;48.746;2023-03-29T05:16:59;99633.16;;;0.26;73.53
78986;BME280;68384;55.750;48.746;2023-03-29T05:18:02;99656.81;;;0.37;73.59
78986;BME280;68384;55.750;48.746;2023-03-29T05:19:06;99662.13;;;0.40;73.50
78986;BME280;68384;55.750;48.746;2023-03-29T05:20:12;99656.06;;;0.38;73.19
78986;BME280;68384;55.750;48.746;2023-03-29T05:21:17;99658.16;;;0.43;73.59
78986;BME280;68384;55.750;48.746;2023-03-29T05:22:19;99660.81;;;0.45;73.59
78986;BME280;68384;55.750;48.746;2023-03-29T05:23:24;99656.56;;;0.45;73.28
78986;BME280;68384;55.750;48.746;2023-03-29T05:24:28;99669.53;;;0.48;73.35
78986;BME280;68384;55.750;48.746;2023-03-29T05:25:32;99671.63;;;0.54;73.20
78986;BME280;68384;55.750;48.746;2023-03-29T05:26:34;99672.81;;;0.59;72.99
78986;BME280;68384;55.750;48.746;2023-03-29T05:27:38;99669.59;;;0.61;73.27
78986;BME280;68384;55.750;48.746;2023-03-29T05:28:41;99662.16;;;0.64;73.07
78986;BME280;68384;55.750;48.746;2023-03-29T05:29:44;99665.72;;;0.66;72.55
78986;BME280;68384;55.750;48.746;2023-03-29T05:30:58;99673.16;;;0.63;72.38
78986;BME280;68384;55.750;48.746;2023-03-29T05:32:03;99664.00;;;0.67;72.66
78986;BME280;68384;55.750;48.746;2023-03-29T05:33:08;99663.03;;;0.65;72.38
78986;BME280;68384;55.750;48.746;2023-03-29T05:34:11;99664.69;;;0.64;72.27
78986;BME280;68384;55.750;48.746;2023-03-29T05:35:15;99663.34;;;0.69;72.36
78986;BME280;68384;55.750;48.746;2023-03-29T05:36:18;99665.13;;;0.70;72.54
78986;BME280;68384;55.750;48.746;2023-03-29T05:37:22;99669.72;;;0.63;72.24
78986;BME280;68384;55.750;48.746;2023-03-29T05:38:24;99663.16;;;0.66;72.46
78986;BME280;68384;55.750;48.746;2023-03-29T05:39:29;99654.28;;;0.61;72.54
78986;BME280;68384;55.750;48.746;2023-03-29T05:40:32;99663.16;;;0.66;72.34
78986;BME280;68384;55.750;48.746;2023-03-29T05:41:36;99664.47;;;0.61;72.44
78986;BME280;68384;55.750;48.746;2023-03-29T05:42:39;99656.97;;;0.63;72.27